Time;durP1;ratioP1;P1;durP2;ratioP2;P2;SDS_P1;SDS_P2;PMS_P1;PMS_P2;Temp;Humidity;BMP_temperature;BMP_pressure;BME280_temperature;BME280_humidity;BME280_pressure;Samples;Min_cycle;Max_cycle;Signal;HPM_P1;HPM_P2
2021/05/14 00:01:56;;;;;;;4.28;2.13;;;;;;;;;;5027229;28;20025;-59
2021/05/14 00:04:24;;;;;;;2.22;1.58;;;;;;;;;;5030059;28;20124;-59
2021/05/14 00:06:51;;;;;;;7.10;2.05;;;;;;;;;;5024244;28;20108;-58
2021/05/14 00:09:17;;;;;;;4.85;1.90;;;;;;;;;;5017847;28;20052;-59
2021/05/14 00:11:44;;;;;;;6.40;3.28;;;;;;;;;;5028480;28;20517;-59
2021/05/14 00:14:12;;;;;;;8.02;2.03;;;;;;;;;;5027216;28;20092;-59
2021/05/14 00:16:39;;;;;;;4.32;2.28;;;;;;;;;;5030178;28;20053;-59
2021/05/14 00:19:06;;;;;;;6.50;1.92;;;;;;;;;;5025007;28;20125;-59
2021/05/14 00:21:34;;;;;;;3.97;2.38;;;;;;;;;;5015774;28;20116;-58
2021/05/14 00:24:01;;;;;;;3.65;2.20;;;;;;;;;;5028737;28;20037;-58
2021/05/14 00:26:27;;;;;;;4.90;2.15;;;;;;;;;;5026791;28;20433;-58
2021/05/14 00:28:54;;;;;;;2.45;1.90;;;;;;;;;;5029770;28;20038;-59
2021/05/14 00:31:21;;;;;;;6.68;1.92;;;;;;;;;;5025710;28;20479;-58
2021/05/14 00:33:48;;;;;;;3.70;1.55;;;;;;;;;;5013129;28;20457;-59
2021/05/14 00:36:14;;;;;;;5.13;2.00;;;;;;;;;;5029571;28;20038;-58
2021/05/14 00:38:41;;;;;;;2.53;1.42;;;;;;;;;;5026374;28;20367;-58
2021/05/14 00:41:08;;;;;;;4.80;2.22;;;;;;;;;;5029863;28;20498;-58
2021/05/14 00:43:35;;;;;;;2.80;1.90;;;;;;;;;;5023618;28;20030;-59
2021/05/14 00:46:02;;;;;;;4.20;1.70;;;;;;;;;;5013315;28;20061;-58
2021/05/14 00:48:30;;;;;;;6.47;1.98;;;;;;;;;;5029224;28;20041;-58
2021/05/14 00:50:56;;;;;;;2.55;1.95;;;;;;;;;;5026286;28;20049;-58
2021/05/14 00:53:23;;;;;;;3.78;2.33;;;;;;;;;;5029779;28;20053;-58
2021/05/14 00:55:50;;;;;;;3.72;1.65;;;;;;;;;;5026665;28;20037;-58
2021/05/14 00:58:17;;;;;;;3.08;1.77;;;;;;;;;;5027623;28;20076;-58
2021/05/14 01:00:43;;;;;;;2.20;2.10;;;;;;;;;;5017947;28;20038;-58
2021/05/14 01:03:14;;;;;;;2.08;1.67;;;;;;;;;;5020950;28;20103;-59
2021/05/14 01:05:43;;;;;;;4.20;2.15;;;;;;;;;;5027742;28;20040;-58
2021/05/14 01:08:10;;;;;;;4.88;1.95;;;;;;;;;;5027878;28;20069;-58
2021/05/14 01:10:37;;;;;;;8.80;2.55;;;;;;;;;;5028090;28;20444;-58
2021/05/14 01:13:05;;;;;;;5.18;2.25;;;;;;;;;;5028186;28;20055;-58
2021/05/14 01:15:32;;;;;;;2.78;1.80;;;;;;;;;;5026275;28;20081;-59
2021/05/14 01:17:59;;;;;;;2.47;1.80;;;;;;;;;;5028072;28;20447;-57
2021/05/14 01:20:29;;;;;;;4.57;1.85;;;;;;;;;;5026851;28;20083;-58
2021/05/14 01:22:57;;;;;;;6.40;2.10;;;;;;;;;;5022208;28;20040;-58
2021/05/14 01:25:24;;;;;;;4.75;2.03;;;;;;;;;;5027427;28;20670;-58
2021/05/14 01:27:52;;;;;;;6.28;2.92;;;;;;;;;;5025687;28;20156;-59
2021/05/14 01:30:20;;;;;;;4.03;1.98;;;;;;;;;;5014484;28;20160;-58
2021/05/14 01:32:47;;;;;;;6.55;1.92;;;;;;;;;;5021651;28;20442;-58
2021/05/14 01:35:13;;;;;;;3.28;1.95;;;;;;;;;;5022248;28;20390;-59
2021/05/14 01:37:41;;;;;;;2.03;1.58;;;;;;;;;;5026610;28;20479;-59
2021/05/14 01:40:08;;;;;;;6.20;2.05;;;;;;;;;;5027256;28;20572;-58
2021/05/14 01:42:35;;;;;;;6.15;2.25;;;;;;;;;;5018160;28;20046;-58
2021/05/14 01:45:05;;;;;;;2.85;1.55;;;;;;;;;;5020455;28;20037;-59
2021/05/14 01:47:32;;;;;;;5.05;1.60;;;;;;;;;;5024927;28;20783;-59
2021/05/14 01:49:59;;;;;;;8.90;1.63;;;;;;;;;;5030781;28;20048;-59
2021/05/14 01:52:26;;;;;;;2.80;1.40;;;;;;;;;;5030488;28;20073;-59
2021/05/14 01:54:52;;;;;;;7.55;2.28;;;;;;;;;;5031956;28;20045;-59
2021/05/14 01:57:19;;;;;;;8.13;1.77;;;;;;;;;;5029519;28;20044;-59
2021/05/14 01:59:46;;;;;;;4.78;1.75;;;;;;;;;;5028415;28;20124;-59
2021/05/14 02:02:18;;;;;;;5.45;1.70;;;;;;;;;;5014167;28;20038;-58
2021/05/14 02:04:45;;;;;;;9.30;1.92;;;;;;;;;;5031153;28;20080;-58
2021/05/14 02:07:12;;;;;;;3.30;1.67;;;;;;;;;;5030023;28;20037;-59
2021/05/14 02:09:39;;;;;;;4.93;3.00;;;;;;;;;;5021635;28;20037;-59
2021/05/14 02:12:06;;;;;;;6.03;2.22;;;;;;;;;;5029964;28;20037;-59
2021/05/14 02:14:33;;;;;;;6.18;1.80;;;;;;;;;;5031123;28;20529;-59
2021/05/14 02:17:00;;;;;;;4.53;1.77;;;;;;;;;;5031316;28;20045;-59
2021/05/14 02:19:28;;;;;;;2.47;2.10;;;;;;;;;;5028503;28;20120;-59
2021/05/14 02:21:55;;;;;;;8.23;2.55;;;;;;;;;;5031897;28;20080;-59
2021/05/14 02:24:23;;;;;;;3.35;1.52;;;;;;;;;;5027323;28;20121;-59
2021/05/14 02:26:49;;;;;;;7.15;1.73;;;;;;;;;;5026614;28;20454;-59
2021/05/14 02:29:16;;;;;;;6.10;1.70;;;;;;;;;;5031087;28;20059;-59
2021/05/14 02:31:43;;;;;;;4.65;2.33;;;;;;;;;;5029684;28;20494;-59
2021/05/14 02:34:10;;;;;;;3.28;2.10;;;;;;;;;;5031432;28;20750;-60
2021/05/14 02:36:37;;;;;;;4.68;2.17;;;;;;;;;;5025366;28;20037;-59
2021/05/14 02:39:05;;;;;;;4.65;1.65;;;;;;;;;;5016972;28;20428;-59
2021/05/14 02:41:32;;;;;;;3.60;1.30;;;;;;;;;;5022921;28;20046;-58
2021/05/14 02:43:59;;;;;;;4.85;2.20;;;;;;;;;;5024920;28;20038;-59
2021/05/14 02:46:26;;;;;;;5.28;1.80;;;;;;;;;;5030665;28;20037;-59
2021/05/14 02:48:52;;;;;;;4.85;2.85;;;;;;;;;;5029303;28;20041;-59
2021/05/14 02:51:19;;;;;;;3.15;2.95;;;;;;;;;;5029919;28;20029;-59
2021/05/14 02:53:46;;;;;;;6.78;2.60;;;;;;;;;;5028476;28;20095;-59
2021/05/14 02:56:12;;;;;;;3.33;2.20;;;;;;;;;;5023111;28;20053;-58
2021/05/14 02:58:39;;;;;;;6.30;2.80;;;;;;;;;;5017311;28;20389;-58
2021/05/14 03:01:06;;;;;;;5.55;2.90;;;;;;;;;;5028956;28;20038;-59
2021/05/14 03:03:33;;;;;;;2.85;1.90;;;;;;;;;;5029055;28;20037;-59
2021/05/14 03:05:59;;;;;;;5.05;2.30;;;;;;;;;;5030116;28;20453;-59
2021/05/14 03:08:26;;;;;;;7.75;2.05;;;;;;;;;;5027226;28;20036;-59
2021/05/14 03:10:53;;;;;;;6.40;1.85;;;;;;;;;;5028536;28;20065;-59
2021/05/14 03:13:20;;;;;;;2.80;2.17;;;;;;;;;;5028032;28;20065;-60
2021/05/14 03:15:46;;;;;;;2.90;1.25;;;;;;;;;;5029556;28;20042;-58
2021/05/14 03:18:13;;;;;;;3.20;1.80;;;;;;;;;;5020393;28;20044;-58
2021/05/14 03:20:40;;;;;;;8.50;1.55;;;;;;;;;;5026803;28;20478;-59
2021/05/14 03:23:07;;;;;;;9.70;2.25;;;;;;;;;;5025613;28;20037;-58
2021/05/14 03:25:34;;;;;;;6.78;2.17;;;;;;;;;;5028452;28;20460;-59
2021/05/14 03:28:00;;;;;;;9.60;2.05;;;;;;;;;;5020530;28;20040;-59
2021/05/14 03:30:27;;;;;;;8.13;2.22;;;;;;;;;;5014852;28;20049;-59
2021/05/14 03:32:54;;;;;;;7.95;2.15;;;;;;;;;;5025895;28;20052;-59
2021/05/14 03:35:21;;;;;;;5.95;2.55;;;;;;;;;;5028638;28;20041;-59
2021/05/14 03:37:48;;;;;;;10.52;3.13;;;;;;;;;;5030463;28;20045;-59
2021/05/14 03:40:37;;;;;;;5.45;2.90;;;;;;;;;;5024473;28;20041;-59
2021/05/14 03:43:04;;;;;;;6.88;1.67;;;;;;;;;;5023034;28;20088;-59
2021/05/14 03:45:31;;;;;;;11.55;2.05;;;;;;;;;;5022175;28;20112;-59
2021/05/14 03:47:58;;;;;;;5.75;2.08;;;;;;;;;;5018542;28;20096;-59
2021/05/14 03:50:31;;;;;;;3.58;2.20;;;;;;;;;;5029912;28;20493;-59
2021/05/14 03:53:00;;;;;;;11.30;2.17;;;;;;;;;;5025882;28;20053;-59
2021/05/14 03:55:27;;;;;;;6.63;2.88;;;;;;;;;;5029175;28;20038;-59
2021/05/14 03:57:54;;;;;;;2.35;1.95;;;;;;;;;;5023761;28;20041;-59
2021/05/14 04:00:21;;;;;;;6.93;2.50;;;;;;;;;;5027232;28;20041;-59
2021/05/14 04:02:48;;;;;;;2.10;1.75;;;;;;;;;;5030724;28;20037;-60
2021/05/14 04:05:15;;;;;;;4.50;1.90;;;;;;;;;;5027798;28;20504;-59
2021/05/14 04:07:42;;;;;;;3.53;1.70;;;;;;;;;;5028421;28;20037;-59
2021/05/14 04:10:19;;;;;;;11.77;1.98;;;;;;;;;;5029756;28;20564;-59
2021/05/14 04:15:52;;;;;;;5.72;3.50;;;;;;;;;;5051179;28;20447;-59
2021/05/14 04:18:20;;;;;;;5.60;2.53;;;;;;;;;;5062773;28;20043;-59
2021/05/14 04:20:46;;;;;;;6.32;3.05;;;;;;;;;;5046245;28;20046;-59
2021/05/14 04:23:13;;;;;;;4.70;1.92;;;;;;;;;;5014177;28;20042;-58
2021/05/14 04:25:40;;;;;;;10.05;2.38;;;;;;;;;;5027607;28;20080;-59
2021/05/14 04:28:07;;;;;;;6.45;1.98;;;;;;;;;;5029522;28;20034;-59
2021/05/14 04:30:33;;;;;;;3.83;2.15;;;;;;;;;;5030020;28;20045;-59
2021/05/14 04:33:00;;;;;;;12.25;2.85;;;;;;;;;;5025353;28;20040;-59
2021/05/14 04:35:27;;;;;;;13.85;3.03;;;;;;;;;;5012154;28;20077;-59
2021/05/14 04:37:54;;;;;;;8.38;2.40;;;;;;;;;;5022135;28;20030;-59
2021/05/14 04:40:21;;;;;;;6.13;2.55;;;;;;;;;;5016436;28;20059;-59
2021/05/14 04:42:47;;;;;;;7.78;2.53;;;;;;;;;;5023037;28;20076;-59
2021/05/14 04:45:14;;;;;;;11.25;2.65;;;;;;;;;;5027044;28;20042;-59
2021/05/14 04:47:41;;;;;;;9.60;2.95;;;;;;;;;;5011906;28;20379;-59
2021/05/14 04:50:08;;;;;;;11.45;2.30;;;;;;;;;;5021402;28;20526;-59
2021/05/14 04:52:44;;;;;;;10.40;2.78;;;;;;;;;;5027748;28;20117;-59
2021/05/14 04:55:12;;;;;;;7.80;2.10;;;;;;;;;;5025737;28;20042;-59
2021/05/14 04:57:38;;;;;;;8.98;1.67;;;;;;;;;;5027512;28;20096;-59
2021/05/14 05:00:05;;;;;;;6.32;2.55;;;;;;;;;;5032235;28;20057;-59
2021/05/14 05:02:33;;;;;;;9.00;3.00;;;;;;;;;;5028726;28;20476;-58
2021/05/14 05:05:00;;;;;;;6.55;1.58;;;;;;;;;;5030471;28;20060;-58
2021/05/14 05:07:30;;;;;;;5.80;2.05;;;;;;;;;;5015251;28;20081;-58
2021/05/14 05:09:57;;;;;;;7.63;2.42;;;;;;;;;;5027380;28;20048;-59
2021/05/14 05:12:24;;;;;;;9.45;3.00;;;;;;;;;;5030812;28;20128;-58
2021/05/14 05:14:51;;;;;;;5.72;1.90;;;;;;;;;;5025651;28;20038;-59
2021/05/14 05:17:17;;;;;;;5.88;2.67;;;;;;;;;;5024892;28;20076;-58
2021/05/14 05:19:44;;;;;;;6.85;2.55;;;;;;;;;;5025224;28;20066;-58
2021/05/14 05:22:13;;;;;;;8.85;2.45;;;;;;;;;;5024137;28;20034;-58
2021/05/14 05:24:40;;;;;;;6.72;2.03;;;;;;;;;;5029534;28;20065;-58
2021/05/14 05:27:07;;;;;;;5.43;2.25;;;;;;;;;;5032964;28;20061;-59
2021/05/14 05:29:37;;;;;;;8.38;2.83;;;;;;;;;;5030448;28;20474;-52
2021/05/14 05:32:04;;;;;;;3.72;1.48;;;;;;;;;;5030782;28;20405;-51
2021/05/14 05:34:31;;;;;;;10.95;2.80;;;;;;;;;;5030578;28;20052;-52
2021/05/14 05:36:58;;;;;;;5.38;2.47;;;;;;;;;;5029938;28;20473;-51
2021/05/14 05:39:24;;;;;;;11.15;2.50;;;;;;;;;;5032023;28;20041;-52
2021/05/14 05:41:51;;;;;;;8.00;1.60;;;;;;;;;;5030350;28;20042;-50
2021/05/14 05:44:18;;;;;;;3.42;1.83;;;;;;;;;;5030011;28;20053;-51
2021/05/14 05:46:45;;;;;;;5.95;2.05;;;;;;;;;;5024753;28;20482;-48
2021/05/14 05:49:12;;;;;;;9.13;2.17;;;;;;;;;;5023414;28;20061;-52
2021/05/14 05:51:39;;;;;;;7.65;1.58;;;;;;;;;;5047128;28;20045;-49
2021/05/14 05:54:08;;;;;;;9.10;2.28;;;;;;;;;;5031209;28;20192;-47
2021/05/14 05:56:35;;;;;;;5.43;2.17;;;;;;;;;;5037505;28;20037;-52
2021/05/14 05:59:02;;;;;;;11.45;2.45;;;;;;;;;;5019893;28;20044;-49
2021/05/14 06:01:29;;;;;;;7.60;1.70;;;;;;;;;;5023360;28;20038;-49
2021/05/14 06:03:55;;;;;;;13.63;2.05;;;;;;;;;;5030716;28;20033;-50
2021/05/14 06:06:22;;;;;;;4.00;1.52;;;;;;;;;;5029155;28;20029;-47
2021/05/14 06:08:50;;;;;;;7.93;1.33;;;;;;;;;;5029218;28;20049;-49
2021/05/14 06:11:17;;;;;;;4.40;1.60;;;;;;;;;;5031377;28;20041;-47
2021/05/14 06:13:43;;;;;;;11.70;1.85;;;;;;;;;;5029755;28;20048;-51
2021/05/14 06:16:10;;;;;;;5.05;2.20;;;;;;;;;;5013395;28;20042;-51
2021/05/14 06:18:39;;;;;;;6.97;1.95;;;;;;;;;;5028940;28;20053;-51
2021/05/14 06:21:06;;;;;;;3.42;1.90;;;;;;;;;;5027652;28;20099;-50
2021/05/14 06:23:34;;;;;;;6.75;1.58;;;;;;;;;;5018982;28;20375;-51
2021/05/14 06:26:00;;;;;;;9.90;1.42;;;;;;;;;;5024639;28;20041;-50
2021/05/14 06:28:27;;;;;;;4.13;1.63;;;;;;;;;;5012016;28;20046;-49
2021/05/14 06:30:54;;;;;;;6.15;1.30;;;;;;;;;;5024753;28;20040;-48
2021/05/14 06:33:21;;;;;;;2.05;1.00;;;;;;;;;;5029206;28;20033;-46
2021/05/14 06:35:49;;;;;;;2.28;1.10;;;;;;;;;;5031031;28;20121;-49
2021/05/14 06:38:16;;;;;;;4.50;1.30;;;;;;;;;;5028444;28;20044;-47
2021/05/14 06:40:43;;;;;;;4.50;1.40;;;;;;;;;;5019631;28;20318;-47
2021/05/14 06:43:10;;;;;;;5.55;1.52;;;;;;;;;;5022852;28;20038;-51
2021/05/14 06:45:36;;;;;;;3.75;1.13;;;;;;;;;;5026460;28;20095;-50
2021/05/14 06:48:04;;;;;;;6.25;1.40;;;;;;;;;;5018805;28;20482;-49
2021/05/14 06:50:31;;;;;;;8.52;1.33;;;;;;;;;;5028177;28;20061;-50
2021/05/14 06:53:00;;;;;;;5.03;1.60;;;;;;;;;;5028189;28;20136;-49
2021/05/14 06:55:27;;;;;;;4.03;1.15;;;;;;;;;;5031151;28;20095;-47
2021/05/14 06:57:54;;;;;;;6.60;1.30;;;;;;;;;;5025592;28;20485;-46
2021/05/14 07:00:21;;;;;;;3.17;1.10;;;;;;;;;;5030447;28;20494;-48
2021/05/14 07:02:48;;;;;;;10.63;1.67;;;;;;;;;;5028000;28;20050;-50
2021/05/14 07:05:16;;;;;;;3.47;1.10;;;;;;;;;;5029580;28;20045;-47
2021/05/14 07:07:43;;;;;;;4.03;1.23;;;;;;;;;;5018559;28;20069;-49
2021/05/14 07:10:10;;;;;;;6.40;1.85;;;;;;;;;;5022318;28;20041;-49
2021/05/14 07:12:37;;;;;;;6.70;1.27;;;;;;;;;;5017726;28;20046;-50
2021/05/14 07:15:06;;;;;;;9.95;1.67;;;;;;;;;;5028650;28;20033;-48
2021/05/14 07:17:33;;;;;;;3.53;1.40;;;;;;;;;;5018704;28;20045;-47
2021/05/14 07:20:00;;;;;;;5.28;1.45;;;;;;;;;;5029476;28;20608;-48
2021/05/14 07:22:27;;;;;;;3.22;1.23;;;;;;;;;;5029782;28;20045;-51
2021/05/14 07:24:54;;;;;;;2.50;1.33;;;;;;;;;;5013348;28;20053;-49
2021/05/14 07:27:20;;;;;;;5.45;1.10;;;;;;;;;;5030424;28;20037;-50
2021/05/14 07:29:47;;;;;;;4.05;1.10;;;;;;;;;;5027911;28;20482;-49
2021/05/14 07:32:14;;;;;;;4.07;0.95;;;;;;;;;;5021826;28;20049;-47
2021/05/14 07:34:41;;;;;;;3.28;1.10;;;;;;;;;;5023817;28;20053;-49
2021/05/14 07:37:08;;;;;;;9.35;1.30;;;;;;;;;;5012947;28;20049;-47
2021/05/14 07:39:39;;;;;;;3.50;0.98;;;;;;;;;;5028338;28;20091;-51
2021/05/14 07:42:06;;;;;;;3.97;0.98;;;;;;;;;;5027513;28;20065;-48
2021/05/14 07:44:33;;;;;;;1.60;1.20;;;;;;;;;;5030248;28;20048;-48
2021/05/14 07:47:00;;;;;;;3.70;1.02;;;;;;;;;;5027342;28;20743;-50
2021/05/14 07:49:28;;;;;;;1.73;0.90;;;;;;;;;;5015235;28;20080;-49
2021/05/14 07:51:54;;;;;;;4.13;1.17;;;;;;;;;;5020267;28;20046;-49
2021/05/14 07:54:21;;;;;;;6.30;0.80;;;;;;;;;;5019992;28;20076;-48
2021/05/14 07:56:48;;;;;;;10.27;1.23;;;;;;;;;;5028992;28;20041;-51
2021/05/14 07:59:19;;;;;;;2.88;0.93;;;;;;;;;;5024239;28;20037;-48
2021/05/14 08:01:46;;;;;;;17.85;2.20;;;;;;;;;;5014360;28;20037;-50
2021/05/14 08:04:13;;;;;;;2.35;1.20;;;;;;;;;;5020017;28;20056;-47
2021/05/14 08:06:40;;;;;;;5.40;0.90;;;;;;;;;;5021969;28;20390;-50
2021/05/14 08:09:10;;;;;;;5.75;1.10;;;;;;;;;;5012984;28;20046;-49
2021/05/14 08:11:37;;;;;;;3.55;1.08;;;;;;;;;;5022661;28;20426;-48
2021/05/14 08:14:03;;;;;;;6.13;1.63;;;;;;;;;;5017128;28;20404;-49
2021/05/14 08:16:30;;;;;;;3.63;1.00;;;;;;;;;;5022156;28;20037;-47
2021/05/14 08:18:57;;;;;;;1.65;1.13;;;;;;;;;;5027362;28;20133;-48
2021/05/14 08:21:24;;;;;;;5.13;1.60;;;;;;;;;;5011603;28;20092;-48
2021/05/14 08:23:50;;;;;;;5.30;1.00;;;;;;;;;;5028163;28;20516;-47
2021/05/14 08:26:17;;;;;;;3.03;0.90;;;;;;;;;;5027013;28;20041;-50
2021/05/14 08:28:44;;;;;;;2.95;1.20;;;;;;;;;;5028344;28;20092;-50
2021/05/14 08:31:11;;;;;;;3.30;1.00;;;;;;;;;;5027225;28;20096;-47
2021/05/14 08:33:37;;;;;;;4.63;1.05;;;;;;;;;;5026306;28;20037;-47
2021/05/14 08:36:04;;;;;;;3.70;0.95;;;;;;;;;;5033621;28;20034;-47
2021/05/14 08:38:32;;;;;;;3.88;0.90;;;;;;;;;;5031169;28;20045;-50
2021/05/14 08:41:06;;;;;;;3.25;0.93;;;;;;;;;;5031181;28;20378;-47
2021/05/14 08:43:34;;;;;;;2.08;0.90;;;;;;;;;;5031787;28;20140;-49
2021/05/14 08:46:02;;;;;;;4.18;1.00;;;;;;;;;;5025603;28;20041;-52
2021/05/14 08:48:35;;;;;;;4.68;1.08;;;;;;;;;;5033308;28;20041;-49
2021/05/14 08:51:09;;;;;;;4.05;0.90;;;;;;;;;;5030377;28;20037;-48
2021/05/14 08:53:43;;;;;;;2.35;0.90;;;;;;;;;;5033498;28;20124;-49
2021/05/14 08:56:10;;;;;;;3.10;0.90;;;;;;;;;;5032461;28;20045;-48
2021/05/14 08:58:38;;;;;;;1.58;0.90;;;;;;;;;;5032088;28;20048;-47
2021/05/14 09:01:05;;;;;;;6.85;1.20;;;;;;;;;;5018171;28;20038;-48
2021/05/14 09:03:31;;;;;;;2.30;0.90;;;;;;;;;;5029566;28;20041;-46
2021/05/14 09:05:59;;;;;;;2.20;0.80;;;;;;;;;;5032284;28;20116;-50
2021/05/14 09:08:26;;;;;;;2.42;1.25;;;;;;;;;;5023685;28;20095;-50
2021/05/14 09:10:53;;;;;;;2.67;0.90;;;;;;;;;;5021404;28;20406;-50
2021/05/14 09:13:20;;;;;;;3.40;0.80;;;;;;;;;;5033066;28;20104;-50
2021/05/14 09:15:47;;;;;;;5.07;0.80;;;;;;;;;;5028703;28;20672;-47
2021/05/14 09:18:17;;;;;;;4.47;0.80;;;;;;;;;;5031733;28;20041;-48
2021/05/14 09:20:45;;;;;;;1.48;0.80;;;;;;;;;;5020898;28;20049;-49
2021/05/14 09:23:15;;;;;;;0.80;0.80;;;;;;;;;;5023143;28;20087;-47
2021/05/14 09:25:55;;;;;;;2.33;0.80;;;;;;;;;;5032233;28;20041;-47
2021/05/14 09:28:23;;;;;;;1.55;0.80;;;;;;;;;;5030472;28;20038;-49
2021/05/14 09:31:08;;;;;;;6.25;0.90;;;;;;;;;;5029770;28;20052;-48
2021/05/14 09:33:37;;;;;;;4.15;1.08;;;;;;;;;;5022755;28;20509;-49
2021/05/14 09:36:08;;;;;;;4.10;0.90;;;;;;;;;;5026616;28;20050;-49
2021/05/14 09:38:43;;;;;;;3.92;0.90;;;;;;;;;;5017614;28;20038;-48
2021/05/14 09:41:22;;;;;;;2.97;0.88;;;;;;;;;;5045909;28;20513;-47
2021/05/14 09:43:56;;;;;;;1.55;0.80;;;;;;;;;;5028573;28;20430;-51
2021/05/14 09:46:27;;;;;;;2.92;1.05;;;;;;;;;;5031105;28;20045;-47
2021/05/14 09:48:55;;;;;;;2.53;1.00;;;;;;;;;;5031640;28;20045;-48
2021/05/14 09:51:22;;;;;;;1.45;0.80;;;;;;;;;;5031040;28;20398;-50
2021/05/14 09:53:49;;;;;;;1.30;0.80;;;;;;;;;;5014582;28;20449;-52
2021/05/14 09:56:27;;;;;;;3.08;0.80;;;;;;;;;;5028743;28;20505;-49
2021/05/14 09:58:54;;;;;;;1.40;0.80;;;;;;;;;;5029524;28;20137;-49
2021/05/14 10:01:21;;;;;;;2.08;0.82;;;;;;;;;;5019238;28;20081;-48
2021/05/14 10:03:48;;;;;;;0.70;0.70;;;;;;;;;;5026148;28;20125;-48
2021/05/14 10:06:15;;;;;;;2.25;1.00;;;;;;;;;;5017915;28;20045;-50
2021/05/14 10:08:49;;;;;;;2.90;1.33;;;;;;;;;;5029767;28;20124;-50
2021/05/14 10:11:15;;;;;;;;;;;;;;;;;;5029986;28;20037;-48
2021/05/14 10:13:42;;;;;;;5.38;1.00;;;;;;;;;;5032357;28;19925;-50
2021/05/14 10:16:09;;;;;;;4.25;0.70;;;;;;;;;;5027730;28;20420;-52
2021/05/14 10:18:38;;;;;;;2.42;0.93;;;;;;;;;;5015419;28;20034;-51
2021/05/14 10:21:09;;;;;;;1.98;0.90;;;;;;;;;;5026629;28;20409;-48
2021/05/14 10:23:54;;;;;;;3.88;1.05;;;;;;;;;;5028616;28;20034;-50
2021/05/14 10:26:20;;;;;;;2.33;0.80;;;;;;;;;;5031889;28;20041;-49
2021/05/14 10:28:48;;;;;;;3.45;1.00;;;;;;;;;;5023765;28;20045;-48
2021/05/14 10:31:18;;;;;;;2.05;0.80;;;;;;;;;;5019167;28;20524;-48
2021/05/14 10:33:47;;;;;;;2.17;1.15;;;;;;;;;;5030339;28;20099;-49
2021/05/14 10:36:20;;;;;;;2.47;1.00;;;;;;;;;;5028389;28;20049;-49
2021/05/14 10:39:07;;;;;;;1.95;0.82;;;;;;;;;;5029716;28;20441;-49
2021/05/14 10:41:45;;;;;;;3.47;1.98;;;;;;;;;;5030127;28;20076;-49
2021/05/14 10:44:12;;;;;;;3.03;0.90;;;;;;;;;;5028891;28;20409;-50
2021/05/14 10:46:39;;;;;;;2.53;1.05;;;;;;;;;;5017010;28;20506;-49
2021/05/14 10:49:05;;;;;;;4.10;0.80;;;;;;;;;;5023707;28;20439;-49
2021/05/14 10:51:48;;;;;;;2.35;0.80;;;;;;;;;;5030083;28;20064;-50
2021/05/14 10:54:34;;;;;;;0.80;0.80;;;;;;;;;;5013940;28;20108;-51
2021/05/14 10:57:00;;;;;;;4.70;0.90;;;;;;;;;;5029638;28;20084;-51
2021/05/14 10:59:34;;;;;;;2.78;0.80;;;;;;;;;;5030535;28;20041;-47
2021/05/14 11:02:21;;;;;;;1.30;0.70;;;;;;;;;;5029105;28;20044;-50
2021/05/14 11:04:48;;;;;;;1.13;0.90;;;;;;;;;;5026340;28;20056;-51
2021/05/14 11:07:30;;;;;;;2.10;0.80;;;;;;;;;;5017360;28;20085;-48
2021/05/14 11:10:17;;;;;;;3.65;0.80;;;;;;;;;;5030695;28;20060;-49
2021/05/14 11:12:44;;;;;;;1.75;0.80;;;;;;;;;;5025606;28;20058;-50
2021/05/14 11:15:13;;;;;;;3.55;1.05;;;;;;;;;;5029882;28;20460;-48
2021/05/14 11:17:40;;;;;;;3.92;0.80;;;;;;;;;;5031486;28;20046;-47
2021/05/14 11:20:20;;;;;;;4.72;0.98;;;;;;;;;;5032949;28;20584;-48
2021/05/14 11:22:47;;;;;;;1.05;0.73;;;;;;;;;;5011198;28;20497;-48
2021/05/14 11:25:17;;;;;;;1.95;0.80;;;;;;;;;;5023474;28;20052;-52
2021/05/14 11:27:53;;;;;;;2.08;0.90;;;;;;;;;;5017712;28;20061;-48
2021/05/14 11:30:20;;;;;;;2.58;0.80;;;;;;;;;;5030275;28;20037;-48
2021/05/14 11:32:47;;;;;;;8.98;1.23;;;;;;;;;;5027365;28;20045;-52
2021/05/14 11:35:17;;;;;;;0.80;0.63;;;;;;;;;;5028511;28;20104;-53
2021/05/14 11:37:53;;;;;;;1.45;0.70;;;;;;;;;;5026126;28;20118;-51
2021/05/14 11:40:21;;;;;;;1.75;0.80;;;;;;;;;;5027388;28;20528;-51
2021/05/14 11:42:54;;;;;;;1.27;0.73;;;;;;;;;;5012082;28;20042;-52
2021/05/14 11:45:25;;;;;;;1.42;0.70;;;;;;;;;;5026691;28;20087;-53
2021/05/14 11:47:55;;;;;;;3.25;0.98;;;;;;;;;;5027540;28;20046;-51
2021/05/14 11:50:40;;;;;;;3.97;1.00;;;;;;;;;;5030219;28;20049;-52
2021/05/14 11:53:08;;;;;;;1.80;1.10;;;;;;;;;;5028213;28;20087;-52
2021/05/14 11:55:36;;;;;;;3.40;1.17;;;;;;;;;;5027883;28;20040;-52
2021/05/14 11:58:03;;;;;;;3.40;1.00;;;;;;;;;;5019677;28;20133;-52
2021/05/14 12:00:41;;;;;;;1.17;0.80;;;;;;;;;;5021559;28;20497;-52
2021/05/14 12:03:14;;;;;;;4.00;0.90;;;;;;;;;;5027715;28;20124;-53
2021/05/14 12:05:42;;;;;;;3.55;0.80;;;;;;;;;;5028852;28;20044;-53
2021/05/14 12:08:13;;;;;;;4.60;0.80;;;;;;;;;;5026621;28;20103;-52
2021/05/14 12:10:53;;;;;;;3.90;1.00;;;;;;;;;;5029491;28;20053;-51
2021/05/14 12:13:22;;;;;;;2.42;0.80;;;;;;;;;;5026466;28;20108;-53
2021/05/14 12:15:58;;;;;;;1.27;0.80;;;;;;;;;;5028323;28;20087;-52
2021/05/14 12:18:25;;;;;;;6.18;0.93;;;;;;;;;;5029991;28;20065;-52
2021/05/14 12:20:55;;;;;;;1.52;0.80;;;;;;;;;;5024499;28;20041;-53
2021/05/14 12:23:24;;;;;;;3.45;0.93;;;;;;;;;;5012350;28;20044;-53
2021/05/14 12:26:00;;;;;;;0.93;0.73;;;;;;;;;;5028247;28;20088;-52
2021/05/14 12:28:46;;;;;;;2.25;0.70;;;;;;;;;;5026972;28;20057;-52
2021/05/14 12:31:27;;;;;;;2.40;0.77;;;;;;;;;;5011632;28;20100;-52
2021/05/14 12:33:56;;;;;;;1.75;0.75;;;;;;;;;;5028286;28;20052;-52
2021/05/14 12:36:32;;;;;;;3.20;0.93;;;;;;;;;;5020719;28;20129;-51
2021/05/14 12:39:04;;;;;;;1.77;0.80;;;;;;;;;;5029885;28;20042;-51
2021/05/14 12:41:35;;;;;;;4.82;0.88;;;;;;;;;;5026353;28;20068;-51
2021/05/14 12:44:12;;;;;;;4.70;0.90;;;;;;;;;;5028075;28;20044;-50
2021/05/14 12:47:00;;;;;;;3.28;0.90;;;;;;;;;;5017818;28;20128;-50
2021/05/14 12:49:42;;;;;;;2.90;0.80;;;;;;;;;;5027487;28;20045;-52
2021/05/14 12:52:21;;;;;;;4.50;0.80;;;;;;;;;;5021784;28;20482;-52
2021/05/14 12:54:55;;;;;;;1.90;0.82;;;;;;;;;;5018317;28;20053;-52
2021/05/14 12:57:22;;;;;;;2.25;0.70;;;;;;;;;;5022178;28;20525;-53
2021/05/14 12:59:50;;;;;;;2.17;0.80;;;;;;;;;;5021535;28;20045;-52
2021/05/14 13:02:20;;;;;;;0.70;0.70;;;;;;;;;;5026100;28;20038;-50
2021/05/14 13:05:00;;;;;;;8.23;1.00;;;;;;;;;;5025116;28;20030;-51
2021/05/14 13:07:27;;;;;;;2.38;0.80;;;;;;;;;;5012410;28;20478;-51
2021/05/14 13:09:54;;;;;;;5.55;0.80;;;;;;;;;;5027167;28;20465;-51
2021/05/14 13:12:21;;;;;;;0.95;0.80;;;;;;;;;;5026456;28;20030;-50
2021/05/14 13:14:48;;;;;;;3.20;0.90;;;;;;;;;;5029295;28;20068;-49
2021/05/14 13:17:15;;;;;;;3.50;0.90;;;;;;;;;;5026044;28;20033;-49
2021/05/14 13:19:41;;;;;;;2.38;0.80;;;;;;;;;;5031172;28;20049;-52
2021/05/14 13:22:08;;;;;;;1.90;1.00;;;;;;;;;;5031285;28;20057;-50
2021/05/14 13:24:35;;;;;;;2.17;0.80;;;;;;;;;;5027298;28;20482;-48
2021/05/14 13:27:02;;;;;;;2.78;0.80;;;;;;;;;;5019282;28;20375;-49
2021/05/14 13:29:29;;;;;;;3.40;0.90;;;;;;;;;;5025331;28;20042;-51
2021/05/14 13:31:56;;;;;;;2.90;0.80;;;;;;;;;;5031676;28;20052;-48
2021/05/14 13:34:27;;;;;;;1.88;0.90;;;;;;;;;;5024054;28;20042;-52
2021/05/14 13:36:54;;;;;;;2.35;1.00;;;;;;;;;;5027985;28;20379;-51
2021/05/14 13:39:23;;;;;;;2.95;1.00;;;;;;;;;;5032711;28;20378;-48
2021/05/14 13:41:50;;;;;;;3.88;0.95;;;;;;;;;;5029443;28;20044;-51
2021/05/14 13:44:18;;;;;;;2.67;0.90;;;;;;;;;;5029463;28;20053;-51
2021/05/14 13:46:45;;;;;;;2.03;1.10;;;;;;;;;;5031379;28;20044;-52
2021/05/14 13:49:11;;;;;;;3.88;0.85;;;;;;;;;;5029824;28;20550;-50
2021/05/14 13:51:38;;;;;;;3.53;1.00;;;;;;;;;;5015618;28;20072;-50
2021/05/14 13:54:05;;;;;;;3.00;1.00;;;;;;;;;;5024563;28;20045;-52
2021/05/14 13:56:32;;;;;;;3.22;1.15;;;;;;;;;;5023527;28;20049;-54
2021/05/14 13:58:59;;;;;;;5.10;1.40;;;;;;;;;;5030315;28;20072;-54
2021/05/14 14:01:25;;;;;;;5.13;1.35;;;;;;;;;;5031136;28;20053;-55
2021/05/14 14:03:54;;;;;;;3.45;1.50;;;;;;;;;;5016466;28;20132;-52
2021/05/14 14:06:21;;;;;;;5.43;1.83;;;;;;;;;;5029181;28;20073;-54
2021/05/14 14:08:48;;;;;;;2.35;1.63;;;;;;;;;;5021512;28;20034;-55
2021/05/14 14:11:15;;;;;;;4.50;2.58;;;;;;;;;;5031023;28;20038;-53
2021/05/14 14:13:41;;;;;;;1.85;1.30;;;;;;;;;;5029045;28;20493;-53
2021/05/14 14:16:08;;;;;;;1.90;1.20;;;;;;;;;;5031738;28;20052;-55
2021/05/14 14:18:35;;;;;;;1.20;1.10;;;;;;;;;;5030529;28;20057;-54
2021/05/14 14:21:02;;;;;;;1.40;1.30;;;;;;;;;;5029816;28;20045;-54
2021/05/14 14:23:29;;;;;;;2.22;1.10;;;;;;;;;;5025547;28;20073;-53
2021/05/14 14:25:56;;;;;;;1.02;0.93;;;;;;;;;;5024895;28;20046;-54
2021/05/14 14:28:22;;;;;;;1.05;1.00;;;;;;;;;;5014035;28;20041;-54
2021/05/14 14:30:50;;;;;;;2.38;1.75;;;;;;;;;;5023499;28;20044;-54
2021/05/14 14:33:17;;;;;;;1.23;1.10;;;;;;;;;;5016065;28;20041;-54
2021/05/14 14:35:44;;;;;;;1.42;1.10;;;;;;;;;;5031822;28;20047;-54
2021/05/14 14:38:14;;;;;;;2.88;1.00;;;;;;;;;;5030667;28;20037;-55
2021/05/14 14:40:42;;;;;;;1.17;1.10;;;;;;;;;;5028277;28;20061;-55
2021/05/14 14:43:09;;;;;;;1.55;1.00;;;;;;;;;;5030558;28;20041;-54
2021/05/14 14:45:36;;;;;;;2.13;1.00;;;;;;;;;;5028966;28;20850;-54
2021/05/14 14:48:03;;;;;;;1.20;1.10;;;;;;;;;;5031806;28;20033;-52
2021/05/14 14:50:30;;;;;;;2.58;1.38;;;;;;;;;;5028030;28;20045;-53
2021/05/14 14:52:57;;;;;;;2.00;1.10;;;;;;;;;;5024422;28;20091;-53
2021/05/14 14:55:24;;;;;;;1.67;1.15;;;;;;;;;;5030675;28;20038;-54